Latest Coastal Weather Observations for Ngayawili (Elcho Island)

IDD60701

Issued at 6:55 pm CST Sunday 26 October 2014 (issued every 10 minutes, with the page automatically refreshed every 10 minutes)

About coastal observations | Map of coastal stations | Coastal observations for NT | Marine services | Other Formats
Station Details ID: 014517 Name: NGAYAWILI Lat: -12.00 Lon: 135.57 Height: 8.1 m
Data from the previous 72 hours. | See also: Recent months at Ngayawili (Elcho Island)
Date/Time
CST
Temp

°C
Wind Pressure Rain
since 9am
mm
Weather Cloud Vis
km
Sea
Height
m
Swell
Dir
 
Speed
knots
Gust
knots
hPa Trend Height
m
Period
s
Dir
26/06:30pm 27.4 NNE 9 13 1011.4 - 0.0 - - - - - - -
26/06:00pm 28.2 NNE 11 14 1009.5 - 0.0 - - - - - - -
26/05:30pm 28.9 N 14 18 1009.1 - 0.0 - - - - - - -
26/05:00pm 29.5 N 13 17 1011.0 - 0.0 - - - - - - -
26/04:30pm 30.6 N 13 17 1010.4 - 0.0 - - - - - - -
26/04:00pm 31.2 N 14 17 1010.8 - 0.0 - - - - - - -
26/03:30pm 31.0 N 15 21 1010.9 - 0.0 - - - - - - -
26/03:00pm 30.6 NNE 11 17 1009.1 - 0.0 - - - - - - -
26/02:30pm 32.3 N 14 18 1011.3 - 0.0 - - - - - - -
26/02:00pm 31.2 N 15 19 1011.8 - 0.0 - - - - - - -
26/01:30pm 30.0 N 14 18 1010.1 - 0.0 - - - - - - -
26/01:00pm 30.4 N 14 18 1012.7 - 0.0 - - - - - - -
26/12:30pm 30.3 NNE 9 16 1013.1 - 0.0 - - - - - - -
26/12:00pm 31.3 ENE 14 21 1012.1 - 0.0 - - - - - - -
26/11:30am 31.3 E 9 16 1014.2 - 0.0 - - - - - - -
26/11:00am 30.9 ENE 10 18 1014.4 - 0.0 - - - - - - -
26/10:30am 29.3 ENE 9 15 1014.9 - 0.0 - - - - - - -
26/10:00am 28.5 NE 9 14 1015.2 - 0.0 - - - - - - -
26/09:30am 29.1 ENE 9 14 1015.3 - 0.0 - - - - - - -
26/09:00am 27.9 ENE 8 13 1014.4 - 0.0 - - - - - - -
26/08:30am 27.6 ENE 8 13 1015.1 - 0.0 - - - - - - -
26/08:00am 26.5 ESE 7 12 1014.8 - 0.0 - - - - - - -
26/07:30am 24.7 E 4 6 1013.9 - 0.0 - - - - - - -
26/07:00am 22.0 E 3 5 1014.3 - 0.0 - - - - - - -
26/06:30am 20.1 E 4 5 1013.7 - 0.0 - - - - - - -
26/06:00am 19.6 E 4 5 1012.8 - 0.0 - - - - - - -
26/05:30am 19.4 E 4 5 1013.1 - 0.0 - - - - - - -
26/05:00am 20.2 E 3 4 1012.1 - 0.0 - - - - - - -
26/04:30am 19.6 E 4 5 1012.3 - 0.0 - - - - - - -
26/04:00am 20.0 E 4 5 1012.6 - 0.0 - - - - - - -
26/03:30am 20.5 E 4 4 1012.5 - 0.0 - - - - - - -
26/03:00am 20.5 E 3 4 1013.0 - 0.0 - - - - - - -
26/02:30am 21.3 E 3 4 1013.0 - 0.0 - - - - - - -
26/02:00am 21.9 E 3 4 1013.0 - 0.0 - - - - - - -
26/01:30am 23.0 E 5 6 1012.9 - 0.0 - - - - - - -
26/01:00am 23.2 E 4 5 1013.7 - 0.0 - - - - - - -
26/12:30am 23.4 E 4 4 1013.8 - 0.0 - - - - - - -
26/12:00am 24.3 ESE 4 6 1013.5 - 0.0 - - - - - - -
 
Date/Time
CST
Temp

°C
Wind Pressure Rain
since 9am
mm
Weather Cloud Vis
km
Sea
Height
m
Swell
Dir
 
Speed
knots
Gust
knots
hPa Trend Height
m
Period
s
Dir
25/11:30pm 24.9 E 5 8 1014.2 - 0.0 - - - - - - -
25/11:00pm 25.1 E 5 10 1013.6 - 0.0 - - - - - - -
25/10:30pm 25.4 ESE 6 9 1013.5 - 0.0 - - - - - - -
25/10:00pm 25.3 E 5 8 1011.2 - 0.0 - - - - - - -
25/09:30pm 25.4 ENE 6 10 1013.9 - 0.0 - - - - - - -
25/09:00pm 25.0 ENE 4 6 1012.7 - 0.0 - - - - - - -
25/08:30pm 25.4 ENE 5 7 1013.2 - 0.0 - - - - - - -
25/08:00pm 25.8 ENE 6 9 1011.9 - 0.0 - - - - - - -
25/07:30pm 26.2 NE 5 8 1012.3 - 0.0 - - - - - - -
25/07:00pm 26.8 ENE 5 9 1012.4 - 0.0 - - - - - - -
25/06:30pm 27.5 NE 6 9 1010.4 - 0.0 - - - - - - -
25/06:00pm 28.2 NE 8 11 1010.0 - 0.0 - - - - - - -
25/05:30pm 29.2 NE 9 15 1009.9 - 0.0 - - - - - - -
25/05:00pm 29.8 NNE 9 14 1011.6 - 0.0 - - - - - - -
25/04:30pm 29.9 NNE 12 19 1011.0 - 0.0 - - - - - - -
25/04:00pm 31.2 NNE 14 19 1011.9 - 0.0 - - - - - - -
25/03:30pm 31.4 NNE 15 22 1010.1 - 0.0 - - - - - - -
25/03:00pm 32.1 NNE 15 19 1010.1 - 0.0 - - - - - - -
25/02:30pm 31.8 N 14 19 1010.6 - 0.0 - - - - - - -
25/02:00pm 30.7 NNE 13 18 1010.8 - 0.0 - - - - - - -
25/01:30pm 31.7 NE 7 11 1012.7 - 0.0 - - - - - - -
25/01:00pm 30.8 E 7 13 1013.7 - 0.0 - - - - - - -
25/12:30pm 31.4 NE 8 17 1012.7 - 0.0 - - - - - - -
25/12:00pm 32.4 NE 8 13 1013.1 - 0.0 - - - - - - -
25/11:30am 31.3 NE 10 17 1013.6 - 0.0 - - - - - - -
25/11:00am 30.7 NE 10 16 1014.0 - 0.0 - - - - - - -
25/10:30am 30.3 E 9 17 1014.8 - 0.0 - - - - - - -
25/10:00am 30.4 E 9 13 1015.6 - 0.0 - - - - - - -
25/09:30am 29.3 ESE 9 14 1015.4 - 0.0 - - - - - - -
25/09:00am 28.6 ENE 10 15 1015.2 - 0.0 - - - - - - -
25/08:30am 27.5 ESE 8 14 1015.7 - 0.0 - - - - - - -
25/08:00am 27.0 E 6 9 1015.2 - 0.0 - - - - - - -
25/07:30am 25.4 E 4 7 1014.8 - 0.0 - - - - - - -
25/07:00am 23.0 E 4 5 1014.6 - 0.0 - - - - - - -
25/06:30am 21.6 E 5 5 1014.1 - 0.0 - - - - - - -
25/06:00am 20.8 E 4 5 1013.8 - 0.0 - - - - - - -
25/05:30am 20.7 ENE 4 5 1013.5 - 0.0 - - - - - - -
25/05:00am 21.2 ENE 4 5 1012.9 - 0.0 - - - - - - -
25/04:30am 21.8 E 5 6 1012.6 - 0.0 - - - - - - -
25/04:00am 21.4 E 4 5 1012.6 - 0.0 - - - - - - -
25/03:30am 20.9 E 4 6 1012.9 - 0.0 - - - - - - -
25/03:00am 21.0 E 4 6 1012.4 - 0.0 - - - - - - -
25/02:30am 21.3 E 4 4 1013.0 - 0.0 - - - - - - -
25/02:00am 22.0 E 4 5 1012.8 - 0.0 - - - - - - -
25/01:30am 21.3 E 4 5 1013.1 - 0.0 - - - - - - -
25/01:00am 21.8 E 4 5 1013.6 - 0.0 - - - - - - -
25/12:30am 22.1 E 4 5 1013.6 - 0.0 - - - - - - -
25/12:00am 23.2 E 5 6 1012.9 - 0.0 - - - - - - -
 
Date/Time
CST
Temp

°C
Wind Pressure Rain
since 9am
mm
Weather Cloud Vis
km
Sea
Height
m
Swell
Dir
 
Speed
knots
Gust
knots
hPa Trend Height
m
Period
s
Dir
24/11:30pm 23.5 E 4 5 1013.8 - 0.0 - - - - - - -
24/11:00pm 24.2 E 4 5 1012.9 - 0.0 - - - - - - -
24/10:30pm 24.8 E 4 6 1014.0 - 0.0 - - - - - - -
24/10:00pm 25.4 ENE 5 7 1013.6 - 0.0 - - - - - - -
24/09:30pm 25.7 E 5 9 1012.5 - 0.0 - - - - - - -
24/09:00pm 25.7 E 6 9 1011.5 - 0.0 - - - - - - -
24/08:30pm 25.8 E 6 10 1011.5 - 0.0 - - - - - - -
24/08:00pm 26.1 ENE 7 13 1010.7 - 0.0 - - - - - - -
24/07:30pm 26.1 ENE 7 10 1011.1 - 0.0 - - - - - - -
24/07:00pm 26.4 ENE 7 12 1009.6 - 0.0 - - - - - - -
24/06:30pm 26.9 ENE 8 12 1009.0 - 0.0 - - - - - - -
24/06:00pm 27.5 NE 10 15 1008.8 - 0.0 - - - - - - -
24/05:30pm 28.3 NE 11 15 1008.5 - 0.0 - - - - - - -
24/05:00pm 29.1 NE 10 16 1010.5 - 0.0 - - - - - - -
24/04:30pm 30.2 NNE 11 16 1009.7 - 0.0 - - - - - - -
24/04:00pm 30.7 NNE 15 21 1010.6 - 0.0 - - - - - - -
24/03:30pm 30.6 NNE 15 20 1008.7 - 0.0 - - - - - - -
24/03:00pm 31.1 E 10 20 1008.6 - 0.0 - - - - - - -
24/02:30pm 32.5 SE 11 18 1009.1 - 0.0 - - - - - - -
24/02:00pm 33.0 ENE 11 15 1011.8 - 0.0 - - - - - - -
24/01:30pm 32.4 ESE 9 19 1010.1 - 0.0 - - - - - - -
24/01:00pm 30.9 ESE 9 13 1012.8 - 0.0 - - - - - - -
24/12:30pm 30.7 E 11 16 1012.8 - 0.0 - - - - - - -
24/12:00pm 31.2 ENE 9 15 1011.7 - 0.0 - - - - - - -
24/11:30am 31.7 ENE 10 16 1012.9 - 0.0 - - - - - - -
24/11:00am 30.1 E 10 18 1014.4 - 0.0 - - - - - - -
24/10:30am 30.2 ENE 10 14 1014.2 - 0.0 - - - - - - -
24/10:00am 30.0 ENE 9 15 1014.8 - 0.0 - - - - - - -
24/09:30am 29.8 E 9 18 1014.8 - 0.0 - - - - - - -
24/09:00am 29.2 E 9 16 1014.8 - 0.0 - - - - - - -
24/08:30am 27.9 E 9 17 1014.9 - 0.0 - - - - - - -
24/08:00am 26.9 E 9 14 1014.5 - 0.0 - - - - - - -
24/07:30am 26.0 E 9 14 1014.2 - 0.0 - - - - - - -
24/07:00am 24.6 E 6 9 1013.2 - 0.0 - - - - - - -
24/06:30am 23.1 E 5 8 1013.7 - 0.0 - - - - - - -
24/06:00am 23.0 E 5 7 1012.7 - 0.0 - - - - - - -
24/05:30am 23.3 E 5 7 1012.5 - 0.0 - - - - - - -
24/05:00am 23.5 ESE 6 9 1012.2 - 0.0 - - - - - - -
24/04:30am 23.4 E 6 7 1010.6 - 0.0 - - - - - - -
24/04:00am 23.7 E 5 7 1012.2 - 0.0 - - - - - - -
24/03:30am 23.9 ESE 5 8 1012.1 - 0.0 - - - - - - -
24/03:00am 24.0 ESE 6 8 1012.3 - 0.0 - - - - - - -
24/02:30am 24.1 E 5 7 1012.3 - 0.0 - - - - - - -
24/02:00am 24.3 ESE 5 7 1012.7 - 0.0 - - - - - - -
24/01:30am 24.7 ESE 6 10 1013.0 - 0.0 - - - - - - -
24/01:00am 24.9 SE 6 9 1013.2 - 0.0 - - - - - - -
24/12:30am 25.3 ESE 7 11 1013.7 - 0.0 - - - - - - -
24/12:00am 25.5 ESE 7 10 1013.2 - 0.0 - - - - - - -
 
Date/Time
CST
Temp

°C
Wind Pressure Rain
since 9am
mm
Weather Cloud Vis
km
Sea
Height
m
Swell
Dir
 
Speed
knots
Gust
knots
hPa Trend Height
m
Period
s
Dir
23/11:30pm 25.7 ESE 7 11 1014.0 - 0.0 - - - - - - -
23/11:00pm 25.7 ESE 7 9 1014.3 - 0.0 - - - - - - -
23/10:30pm 25.9 ESE 6 9 1013.1 - 0.0 - - - - - - -
23/10:00pm 26.0 ESE 5 8 1014.0 - 0.0 - - - - - - -
23/09:30pm 25.9 ENE 5 9 1013.5 - 0.0 - - - - - - -
23/09:00pm 25.4 ENE 4 5 1011.5 - 0.0 - - - - - - -
23/08:30pm 25.8 ENE 4 5 1012.5 - 0.0 - - - - - - -
23/08:00pm 26.4 ENE 5 8 1012.1 - 0.0 - - - - - - -
23/07:30pm 26.8 NE 5 9 1010.2 - 0.0 - - - - - - -
23/07:00pm 27.1 NE 7 11 1011.6 - 0.0 - - - - - - -

Other Formats:

Comma delimited format used in spreadsheet applications
http://www.bom.gov.au/fwo/IDD60701/IDD60701.95146.axf

JavaScript Object Notation format (JSON) in row-major order
http://www.bom.gov.au/fwo/IDD60701/IDD60701.95146.json